Time;durP1;ratioP1;P1;durP2;ratioP2;P2;SDS_P1;SDS_P2;PMS_P1;PMS_P2;Temp;Humidity;BMP_temperature;BMP_pressure;BME280_temperature;BME280_humidity;BME280_pressure;Samples;Min_cycle;Max_cycle;Signal;HPM_P1;HPM_P2
2023/07/15 00:00:42;;;;;;;2.83;1.98;;;;;;;;;;5014806;28;20223;-33
2023/07/15 00:03:26;;;;;;;2.35;2.17;;;;;;;;;;5017733;28;20219;-33
2023/07/15 00:06:29;;;;;;;2.20;2.00;;;;;;;;;;5018325;28;20204;-36
2023/07/15 00:09:35;;;;;;;2.70;2.10;;;;;;;;;;5018270;28;20234;-31
2023/07/15 00:12:29;;;;;;;2.33;2.13;;;;;;;;;;5018027;28;20275;-31
2023/07/15 00:15:26;;;;;;;2.45;2.15;;;;;;;;;;5017834;28;20612;-31
2023/07/15 00:18:20;;;;;;;2.88;2.33;;;;;;;;;;5017815;28;20231;-33
2023/07/15 00:21:15;;;;;;;2.33;2.13;;;;;;;;;;5017870;28;20225;-32
2023/07/15 00:24:15;;;;;;;2.20;2.03;;;;;;;;;;5017121;28;20212;-32
2023/07/15 00:37:20;;;;;;;2.60;2.40;;;;;;;;;;5072295;28;20254;-34
2023/07/15 00:40:28;;;;;;;2.65;2.33;;;;;;;;;;5076536;28;20229;-32
2023/07/15 00:57:10;;;;;;;2.60;2.40;;;;;;;;;;5056738;28;20282;-30
2023/07/15 01:00:09;;;;;;;2.55;2.35;;;;;;;;;;5075141;28;20315;-34
2023/07/15 01:03:10;;;;;;;1.80;1.70;;;;;;;;;;5075938;28;20228;-30
2023/07/15 01:09:18;;;;;;;2.90;2.30;;;;;;;;;;5034107;28;20251;-30
2023/07/15 01:18:11;;;;;;;2.63;2.28;;;;;;;;;;5076050;28;20212;-31
2023/07/15 01:23:59;;;;;;;2.20;2.10;;;;;;;;;;5074276;28;20209;-32
2023/07/15 01:27:07;;;;;;;2.17;2.08;;;;;;;;;;5076268;28;20300;-32
2023/07/15 01:30:06;;;;;;;2.40;2.20;;;;;;;;;;5075172;28;20490;-33
2023/07/15 01:33:06;;;;;;;3.65;2.15;;;;;;;;;;5076071;28;20216;-32
2023/07/15 01:36:03;;;;;;;2.45;2.25;;;;;;;;;;5075738;28;20429;-31
2023/07/15 01:39:01;;;;;;;2.97;2.20;;;;;;;;;;5075504;28;20317;-34
2023/07/15 01:41:48;;;;;;;4.00;2.58;;;;;;;;;;5076362;28;20234;-34
2023/07/15 01:44:48;;;;;;;3.60;2.50;;;;;;;;;;5075505;28;20316;-33
2023/07/15 01:50:19;;;;;;;2.53;2.33;;;;;;;;;;5062195;22;20313;-30
2023/07/15 01:58:50;;;;;;;2.72;2.30;;;;;;;;;;5043590;28;20316;-36
2023/07/15 02:01:48;;;;;;;3.08;2.45;;;;;;;;;;5055803;28;20206;-35
2023/07/15 02:07:32;;;;;;;2.53;2.00;;;;;;;;;;5053207;28;20220;-31
2023/07/15 02:12:34;;;;;;;2.60;2.40;;;;;;;;;;5033341;28;20225;-28
2023/07/15 02:15:03;;;;;;;2.95;2.40;;;;;;;;;;5035022;28;20260;-26
2023/07/15 02:17:30;;;;;;;2.75;2.55;;;;;;;;;;5033900;28;20206;-27
2023/07/15 02:19:59;;;;;;;2.53;2.33;;;;;;;;;;5031253;28;20257;-27
2023/07/15 02:22:26;;;;;;;2.88;2.38;;;;;;;;;;5030672;28;20234;-28
2023/07/15 02:24:54;;;;;;;2.60;2.30;;;;;;;;;;5029464;28;20230;-25
2023/07/15 02:27:21;;;;;;;2.70;2.13;;;;;;;;;;5030324;28;20210;-27
2023/07/15 02:29:48;;;;;;;2.47;2.28;;;;;;;;;;5030812;28;20284;-26
2023/07/15 02:32:35;;;;;;;2.30;2.10;;;;;;;;;;5031168;28;20206;-29
2023/07/15 02:35:03;;;;;;;2.50;2.28;;;;;;;;;;5030129;28;20209;-28
2023/07/15 02:37:31;;;;;;;3.35;2.20;;;;;;;;;;5032685;28;20221;-29
2023/07/15 02:39:59;;;;;;;2.35;2.22;;;;;;;;;;5032993;28;20229;-27
2023/07/15 02:42:26;;;;;;;2.40;2.20;;;;;;;;;;5030692;28;20210;-28
2023/07/15 02:44:53;;;;;;;2.85;2.47;;;;;;;;;;5030190;28;20260;-28
2023/07/15 02:47:21;;;;;;;3.28;2.25;;;;;;;;;;5029644;28;20214;-28
2023/07/15 02:49:48;;;;;;;3.50;2.20;;;;;;;;;;5029593;28;20325;-31
2023/07/15 02:52:15;;;;;;;2.15;2.00;;;;;;;;;;5030348;28;20213;-29
2023/07/15 02:54:43;;;;;;;2.70;2.25;;;;;;;;;;5029759;28;20193;-26
2023/07/15 02:57:10;;;;;;;2.67;2.10;;;;;;;;;;5029016;28;20210;-26
2023/07/15 02:59:37;;;;;;;2.40;2.22;;;;;;;;;;5029923;28;20232;-27
2023/07/15 03:02:04;;;;;;;2.15;2.00;;;;;;;;;;5030141;28;20211;-27
2023/07/15 03:04:33;;;;;;;2.57;2.37;;;;;;;;;;5028985;28;20230;-25
2023/07/15 03:07:00;;;;;;;2.65;2.45;;;;;;;;;;5029723;28;20210;-27
2023/07/15 03:09:27;;;;;;;3.00;2.22;;;;;;;;;;5030043;28;20222;-26
2023/07/15 03:11:55;;;;;;;2.40;2.20;;;;;;;;;;5028571;28;20305;-33
2023/07/15 03:14:22;;;;;;;2.92;2.55;;;;;;;;;;5030039;28;20282;-27
2023/07/15 03:16:49;;;;;;;3.03;2.10;;;;;;;;;;5029728;28;20203;-29
2023/07/15 03:19:17;;;;;;;2.42;2.15;;;;;;;;;;5029097;28;20231;-27
2023/07/15 03:21:45;;;;;;;2.35;2.17;;;;;;;;;;5029797;28;20241;-29
2023/07/15 03:24:12;;;;;;;2.55;2.05;;;;;;;;;;5029959;28;20205;-28
2023/07/15 03:26:40;;;;;;;2.33;2.13;;;;;;;;;;5027594;28;20214;-28
2023/07/15 03:29:08;;;;;;;2.57;2.37;;;;;;;;;;5029758;28;20329;-28
2023/07/15 03:31:35;;;;;;;2.10;2.00;;;;;;;;;;5029980;28;20252;-27
2023/07/15 03:34:03;;;;;;;2.57;2.20;;;;;;;;;;5028946;28;20213;-28
2023/07/15 03:36:30;;;;;;;2.25;2.15;;;;;;;;;;5033164;28;20214;-29
2023/07/15 03:38:59;;;;;;;1.95;1.77;;;;;;;;;;5033952;28;20226;-31
2023/07/15 03:41:26;;;;;;;2.20;2.00;;;;;;;;;;5033169;28;20206;-28
2023/07/15 03:43:53;;;;;;;2.30;2.20;;;;;;;;;;5033658;28;20249;-28
2023/07/15 03:46:20;;;;;;;2.45;2.00;;;;;;;;;;5033315;28;20240;-27
2023/07/15 03:48:47;;;;;;;2.27;2.07;;;;;;;;;;5033648;28;20233;-30
2023/07/15 03:51:15;;;;;;;2.63;2.42;;;;;;;;;;5034001;28;20232;-28
2023/07/15 03:53:42;;;;;;;1.88;1.77;;;;;;;;;;5035957;28;20206;-27
2023/07/15 03:56:10;;;;;;;2.40;2.20;;;;;;;;;;5034059;28;20214;-28
2023/07/15 04:09:50;;;;;;;2.40;2.20;;;;;;;;;;2248430;22;21911;-28
2023/07/15 04:12:19;;;;;;;2.53;2.20;;;;;;;;;;5015861;28;20211;-25
2023/07/15 04:30:42;;;;;;;3.50;2.30;;;;;;;;;;5033976;28;20214;-31
2023/07/15 04:33:10;;;;;;;2.70;2.43;;;;;;;;;;5036349;28;20222;-29
2023/07/15 04:35:37;;;;;;;2.93;2.50;;;;;;;;;;5056824;28;20209;-29
2023/07/15 04:50:57;;;;;;;5.07;2.40;;;;;;;;;;5015303;28;20222;-27
2023/07/15 04:53:25;;;;;;;3.20;2.55;;;;;;;;;;5016495;28;20198;-26
2023/07/15 04:55:52;;;;;;;3.53;2.30;;;;;;;;;;5015971;28;20210;-30
2023/07/15 05:11:15;;;;;;;3.97;2.20;;;;;;;;;;5053533;28;20232;-29
2023/07/15 05:13:42;;;;;;;3.95;2.33;;;;;;;;;;5056657;28;20190;-27
2023/07/15 05:16:10;;;;;;;2.43;2.23;;;;;;;;;;5055516;28;20234;-30
2023/07/15 05:31:30;;;;;;;2.37;2.13;;;;;;;;;;5033164;28;20227;-29
2023/07/15 05:33:57;;;;;;;2.42;2.13;;;;;;;;;;5035534;28;20206;-29
2023/07/15 05:36:24;;;;;;;2.70;2.50;;;;;;;;;;5035475;28;20213;-27
2023/07/15 05:51:37;;;;;;;2.25;2.05;;;;;;;;;;4994498;28;20306;-27
2023/07/15 05:54:04;;;;;;;2.65;2.10;;;;;;;;;;4996039;28;20207;-32
2023/07/15 05:56:31;;;;;;;2.70;2.22;;;;;;;;;;4996224;28;20204;-27
2023/07/15 06:11:52;;;;;;;2.05;1.95;;;;;;;;;;5092032;28;20229;-27
2023/07/15 06:14:19;;;;;;;2.28;2.08;;;;;;;;;;5095004;28;20207;-28
2023/07/15 06:16:46;;;;;;;2.83;2.40;;;;;;;;;;5095155;28;20212;-26
2023/07/15 06:32:06;;;;;;;4.88;2.13;;;;;;;;;;5052733;28;20215;-29
2023/07/15 06:34:33;;;;;;;3.13;2.28;;;;;;;;;;5054869;28;20291;-29
2023/07/15 06:37:01;;;;;;;2.25;2.00;;;;;;;;;;5055041;28;20206;-27
2023/07/15 06:52:21;;;;;;;2.20;1.98;;;;;;;;;;5052365;28;20217;-31
2023/07/15 06:54:48;;;;;;;3.55;2.10;;;;;;;;;;5054559;28;20303;-28
2023/07/15 06:57:15;;;;;;;2.40;2.20;;;;;;;;;;5053994;28;20202;-31
2023/07/15 07:10:02;;;;;;;2.10;2.00;;;;;;;;;;5051935;28;20218;-28
2023/07/15 07:12:29;;;;;;;2.28;1.92;;;;;;;;;;5053917;28;20216;-29
2023/07/15 07:14:56;;;;;;;2.42;2.10;;;;;;;;;;5053815;28;20197;-31
2023/07/15 07:17:24;;;;;;;2.13;1.92;;;;;;;;;;5053922;28;20209;-31
2023/07/15 07:30:11;;;;;;;4.07;2.33;;;;;;;;;;5070963;28;20209;-29
2023/07/15 07:32:38;;;;;;;1.90;1.80;;;;;;;;;;5073605;28;20201;-29
2023/07/15 07:35:06;;;;;;;2.95;2.15;;;;;;;;;;5073545;28;20208;-28
2023/07/15 07:50:27;;;;;;;2.20;2.10;;;;;;;;;;5051581;28;20217;-29
2023/07/15 07:52:54;;;;;;;2.55;2.03;;;;;;;;;;5053431;28;20209;-29
2023/07/15 07:55:21;;;;;;;1.83;1.67;;;;;;;;;;5053339;28;20248;-31
2023/07/15 08:10:37;;;;;;;4.82;2.42;;;;;;;;;;5070184;28;20221;-30
2023/07/15 08:13:05;;;;;;;2.97;2.15;;;;;;;;;;5073704;28;20204;-28
2023/07/15 08:30:58;;;;;;;2.08;1.90;;;;;;;;;;5053086;28;20248;-27
2023/07/15 08:33:25;;;;;;;4.45;2.05;;;;;;;;;;5056209;28;20213;-27
2023/07/15 08:35:53;;;;;;;2.38;2.00;;;;;;;;;;5056317;28;20206;-26
2023/07/15 08:56:36;;;;;;;1.77;1.67;;;;;;;;;;5091582;27;21032;-33
2023/07/15 09:12:00;;;;;;;1.67;1.58;;;;;;;;;;5068954;28;20228;-25
2023/07/15 09:30:24;;;;;;;2.70;1.70;;;;;;;;;;5048952;28;20680;-25
2023/07/15 09:32:51;;;;;;;2.00;1.85;;;;;;;;;;5050320;28;20210;-25
2023/07/15 09:35:20;;;;;;;2.20;1.92;;;;;;;;;;5050344;28;20202;-26
2023/07/15 09:50:41;;;;;;;1.98;1.73;;;;;;;;;;5048414;28;20541;-27
2023/07/15 09:53:08;;;;;;;4.50;1.70;;;;;;;;;;5050035;28;20206;-27
2023/07/15 09:55:36;;;;;;;1.73;1.63;;;;;;;;;;5047123;28;20213;-30
2023/07/15 10:10:56;;;;;;;1.63;1.42;;;;;;;;;;5034161;28;20218;-25
2023/07/15 10:13:23;;;;;;;2.10;1.67;;;;;;;;;;5036482;28;20221;-24
2023/07/15 10:15:50;;;;;;;3.33;2.50;;;;;;;;;;5036166;28;20206;-25
2023/07/15 10:31:24;;;;;;;1.60;1.50;;;;;;;;;;5034943;28;20218;-26
2023/07/15 10:33:55;;;;;;;1.60;1.50;;;;;;;;;;5036115;28;20568;-25
2023/07/15 10:36:41;;;;;;;1.58;1.42;;;;;;;;;;5035874;28;20234;-25
2023/07/15 10:52:02;;;;;;;1.90;1.70;;;;;;;;;;5033776;28;20226;-24
2023/07/15 10:54:29;;;;;;;4.15;2.33;;;;;;;;;;5035339;28;20202;-27
2023/07/15 10:56:57;;;;;;;2.28;1.60;;;;;;;;;;5035407;28;20207;-25
2023/07/15 11:12:18;;;;;;;1.83;1.73;;;;;;;;;;5033627;28;20226;-26
2023/07/15 11:14:45;;;;;;;2.65;1.67;;;;;;;;;;5035452;28;20198;-22
2023/07/15 11:17:14;;;;;;;2.80;1.88;;;;;;;;;;5035815;28;20222;-25
2023/07/15 11:32:34;;;;;;;1.85;1.67;;;;;;;;;;5034088;28;20224;-27
2023/07/15 11:35:11;;;;;;;1.80;1.70;;;;;;;;;;5035043;28;20207;-24
2023/07/15 11:50:36;;;;;;;1.75;1.65;;;;;;;;;;5032930;28;20226;-25
2023/07/15 11:56:07;;;;;;;2.13;2.03;;;;;;;;;;5034078;28;20232;-24
2023/07/15 12:11:27;;;;;;;3.72;2.00;;;;;;;;;;5032536;28;20234;-26
2023/07/15 12:13:54;;;;;;;2.00;1.90;;;;;;;;;;5034103;28;20301;-24
2023/07/15 12:16:22;;;;;;;4.80;1.77;;;;;;;;;;5034114;28;20233;-25
2023/07/15 12:31:42;;;;;;;2.13;1.50;;;;;;;;;;5032448;28;20214;-24
2023/07/15 12:34:09;;;;;;;2.53;1.73;;;;;;;;;;5034286;28;20202;-25
2023/07/15 12:36:36;;;;;;;1.33;1.27;;;;;;;;;;5033409;28;20211;-26
2023/07/15 12:52:10;;;;;;;1.90;1.80;;;;;;;;;;5032632;28;20263;-25
2023/07/15 12:54:37;;;;;;;1.60;1.50;;;;;;;;;;5033933;28;20206;-26
2023/07/15 12:57:04;;;;;;;2.42;1.90;;;;;;;;;;5033605;28;20664;-25
2023/07/15 13:12:24;;;;;;;1.98;1.83;;;;;;;;;;5032068;28;20219;-27
2023/07/15 13:14:51;;;;;;;1.90;1.80;;;;;;;;;;5033675;28;20202;-23
2023/07/15 13:17:18;;;;;;;1.90;1.73;;;;;;;;;;5033622;28;20210;-23
2023/07/15 13:27:40;;;;;;;2.17;2.05;;;;;;;;;;6261614;22;20188;-28
2023/07/15 13:30:10;;;;;;;2.33;1.77;;;;;;;;;;5051743;28;20228;-33
2023/07/15 13:32:37;;;;;;;2.13;2.03;;;;;;;;;;5056233;28;20208;-30
2023/07/15 13:35:05;;;;;;;2.00;1.90;;;;;;;;;;5056988;28;20201;-30
2023/07/15 13:50:25;;;;;;;2.55;1.88;;;;;;;;;;5034951;28;20214;-24
2023/07/15 13:52:52;;;;;;;3.85;1.98;;;;;;;;;;5036659;28;20212;-25
2023/07/15 13:55:19;;;;;;;2.17;1.98;;;;;;;;;;5036293;28;20209;-24
2023/07/15 14:10:39;;;;;;;1.95;1.83;;;;;;;;;;5034783;28;20229;-26
2023/07/15 14:13:06;;;;;;;2.25;2.08;;;;;;;;;;5036207;28;20202;-25
2023/07/15 14:15:33;;;;;;;4.22;2.22;;;;;;;;;;5036471;28;20198;-24
2023/07/15 14:20:36;;;;;;;1.55;1.45;;;;;;;;;;5180912;22;20307;-31
2023/07/15 14:23:03;;;;;;;1.92;1.83;;;;;;;;;;5054699;28;20210;-37
2023/07/15 14:25:30;;;;;;;3.45;2.00;;;;;;;;;;5053829;28;20461;-36
2023/07/15 14:27:59;;;;;;;1.98;1.77;;;;;;;;;;5054154;28;20222;-39
2023/07/15 14:30:26;;;;;;;2.13;1.77;;;;;;;;;;5054567;28;20758;-41
2023/07/15 14:35:57;;;;;;;2.20;2.00;;;;;;;;;;5053587;28;20261;-33
2023/07/15 14:38:24;;;;;;;3.22;1.90;;;;;;;;;;5053009;28;20291;-41
2023/07/15 14:40:51;;;;;;;3.17;1.75;;;;;;;;;;5052269;28;20292;-38
2023/07/15 14:43:20;;;;;;;3.17;2.00;;;;;;;;;;5052242;28;20760;-37
2023/07/15 14:45:47;;;;;;;3.03;1.70;;;;;;;;;;5052629;28;20230;-38
2023/07/15 14:48:14;;;;;;;1.80;1.70;;;;;;;;;;5052662;28;20222;-37
2023/07/15 14:50:41;;;;;;;2.00;1.83;;;;;;;;;;5052365;28;20202;-35
2023/07/15 14:53:08;;;;;;;1.50;1.40;;;;;;;;;;5052133;28;20682;-36
2023/07/15 14:55:36;;;;;;;2.92;1.60;;;;;;;;;;5052074;28;20206;-40
2023/07/15 14:58:03;;;;;;;1.90;1.70;;;;;;;;;;5051941;28;20221;-40
2023/07/15 15:00:33;;;;;;;3.88;2.13;;;;;;;;;;5052596;28;20209;-37
2023/07/15 15:03:00;;;;;;;1.50;1.45;;;;;;;;;;5052070;28;20679;-37
2023/07/15 15:05:27;;;;;;;2.00;1.60;;;;;;;;;;5051219;28;20718;-35
2023/07/15 15:07:54;;;;;;;2.45;1.60;;;;;;;;;;5051706;28;20221;-38
2023/07/15 15:10:21;;;;;;;1.58;1.48;;;;;;;;;;5051287;28;20212;-37
2023/07/15 15:12:48;;;;;;;2.35;1.77;;;;;;;;;;5051832;28;20659;-37
2023/07/15 15:15:15;;;;;;;1.95;1.83;;;;;;;;;;5051686;28;20201;-41
2023/07/15 15:17:44;;;;;;;1.88;1.77;;;;;;;;;;5051580;28;20206;-39
2023/07/15 15:20:11;;;;;;;3.40;2.15;;;;;;;;;;5050785;28;20213;-38
2023/07/15 15:22:39;;;;;;;2.15;1.98;;;;;;;;;;5051760;28;20205;-37
2023/07/15 15:25:06;;;;;;;6.63;3.25;;;;;;;;;;5050679;28;20210;-33
2023/07/15 15:27:33;;;;;;;2.30;2.10;;;;;;;;;;5050968;28;20280;-40
2023/07/15 15:30:00;;;;;;;2.88;2.28;;;;;;;;;;5051279;28;20771;-34
2023/07/15 15:32:27;;;;;;;2.38;1.98;;;;;;;;;;5051136;28;20209;-30
2023/07/15 15:34:56;;;;;;;2.58;2.35;;;;;;;;;;5051034;28;20213;-40
2023/07/15 15:37:23;;;;;;;3.17;2.35;;;;;;;;;;5051100;28;20737;-37
2023/07/15 15:39:50;;;;;;;6.20;2.60;;;;;;;;;;5050606;28;20221;-36
2023/07/15 15:42:17;;;;;;;3.05;2.58;;;;;;;;;;5050931;28;20580;-37
2023/07/15 15:44:44;;;;;;;4.05;2.72;;;;;;;;;;5051405;28;20202;-38
2023/07/15 15:47:11;;;;;;;7.57;2.60;;;;;;;;;;5050900;28;20229;-41
2023/07/15 15:49:39;;;;;;;5.95;2.95;;;;;;;;;;5050493;28;20236;-39
2023/07/15 15:52:08;;;;;;;3.65;2.85;;;;;;;;;;5050937;28;20214;-33
2023/07/15 15:54:35;;;;;;;8.35;3.10;;;;;;;;;;5050723;28;20208;-39
2023/07/15 15:57:02;;;;;;;6.70;2.75;;;;;;;;;;5050227;28;20471;-39
2023/07/15 15:59:29;;;;;;;4.07;3.25;;;;;;;;;;5051543;28;20222;-38
2023/07/15 16:01:56;;;;;;;9.27;2.70;;;;;;;;;;5052046;28;20215;-35
2023/07/15 16:04:23;;;;;;;3.35;2.70;;;;;;;;;;5051061;28;20667;-36
2023/07/15 16:06:50;;;;;;;6.30;2.70;;;;;;;;;;5049869;28;20232;-37
2023/07/15 16:09:19;;;;;;;5.50;2.70;;;;;;;;;;5050596;28;20226;-39
2023/07/15 16:11:46;;;;;;;3.20;2.63;;;;;;;;;;5049689;28;20448;-39
2023/07/15 16:14:13;;;;;;;5.28;3.22;;;;;;;;;;5050407;28;20759;-39
2023/07/15 16:16:40;;;;;;;3.80;2.85;;;;;;;;;;5050678;28;20232;-34
2023/07/15 16:19:09;;;;;;;3.70;3.17;;;;;;;;;;5049851;28;20703;-40
2023/07/15 16:21:36;;;;;;;3.45;3.00;;;;;;;;;;5051882;28;20285;-37
2023/07/15 16:24:03;;;;;;;6.63;2.80;;;;;;;;;;5051418;28;20205;-39
2023/07/15 16:26:32;;;;;;;4.80;2.60;;;;;;;;;;5049628;28;20254;-38
2023/07/15 16:28:59;;;;;;;7.32;2.90;;;;;;;;;;5050569;28;20712;-36
2023/07/15 16:31:26;;;;;;;5.07;3.45;;;;;;;;;;5050591;28;20206;-43
2023/07/15 16:33:53;;;;;;;6.25;3.10;;;;;;;;;;5049795;28;20659;-38
2023/07/15 16:36:20;;;;;;;4.10;3.13;;;;;;;;;;5050079;28;20472;-37
2023/07/15 16:38:47;;;;;;;7.10;3.22;;;;;;;;;;5050198;28;20225;-35
2023/07/15 16:41:14;;;;;;;4.78;3.17;;;;;;;;;;5048655;28;20205;-37
2023/07/15 16:43:43;;;;;;;4.03;2.70;;;;;;;;;;5049898;28;20678;-35
2023/07/15 16:46:10;;;;;;;3.15;2.85;;;;;;;;;;5049894;28;20232;-37
2023/07/15 16:48:37;;;;;;;3.97;2.80;;;;;;;;;;5050323;28;20236;-34
2023/07/15 16:51:04;;;;;;;4.88;3.10;;;;;;;;;;5049386;28;20229;-36
2023/07/15 16:53:32;;;;;;;3.15;2.65;;;;;;;;;;5050197;28;20566;-31
2023/07/15 16:55:59;;;;;;;4.95;2.75;;;;;;;;;;5049504;28;20205;-35
2023/07/15 16:58:26;;;;;;;6.80;2.90;;;;;;;;;;5049829;28;20222;-37
2023/07/15 17:00:54;;;;;;;4.03;2.80;;;;;;;;;;5050017;28;20209;-34
2023/07/15 17:03:21;;;;;;;3.00;2.70;;;;;;;;;;5049637;28;20210;-36
2023/07/15 17:05:49;;;;;;;5.25;2.63;;;;;;;;;;5049891;28;20220;-34
2023/07/15 17:08:16;;;;;;;6.07;2.88;;;;;;;;;;5054038;28;20231;-37
2023/07/15 17:10:43;;;;;;;4.47;2.95;;;;;;;;;;5053213;28;20233;-38
2023/07/15 17:13:12;;;;;;;3.33;2.97;;;;;;;;;;5053898;28;20206;-34
2023/07/15 17:15:39;;;;;;;4.03;2.67;;;;;;;;;;5053949;28;20498;-40
2023/07/15 17:18:08;;;;;;;2.80;2.58;;;;;;;;;;5053185;28;20228;-36
2023/07/15 17:20:35;;;;;;;3.72;3.17;;;;;;;;;;5053956;28;20213;-37
2023/07/15 17:23:02;;;;;;;3.30;2.97;;;;;;;;;;5054555;28;20293;-34
2023/07/15 17:25:29;;;;;;;5.50;2.40;;;;;;;;;;5053105;28;20229;-37
2023/07/15 17:27:56;;;;;;;5.50;2.90;;;;;;;;;;5053720;28;20234;-38
2023/07/15 17:30:24;;;;;;;4.25;2.95;;;;;;;;;;5053774;28;20682;-34
2023/07/15 17:32:51;;;;;;;4.07;2.90;;;;;;;;;;5053725;28;20204;-36
2023/07/15 17:35:19;;;;;;;5.05;2.85;;;;;;;;;;5052666;28;20201;-32
2023/07/15 17:37:46;;;;;;;4.40;2.72;;;;;;;;;;5053553;28;20229;-37
2023/07/15 17:40:14;;;;;;;4.85;3.00;;;;;;;;;;5052710;28;20206;-38
2023/07/15 17:42:41;;;;;;;4.30;2.47;;;;;;;;;;5053883;28;20202;-38
2023/07/15 17:45:08;;;;;;;5.45;3.20;;;;;;;;;;5053271;28;20583;-38
2023/07/15 17:47:35;;;;;;;4.40;2.75;;;;;;;;;;5053409;28;20236;-39
2023/07/15 17:50:02;;;;;;;5.55;3.03;;;;;;;;;;5052979;28;20652;-34
2023/07/15 17:52:31;;;;;;;4.22;3.28;;;;;;;;;;5053823;28;20257;-37
2023/07/15 17:54:58;;;;;;;4.65;3.30;;;;;;;;;;5052627;28;20699;-39
2023/07/15 17:57:25;;;;;;;7.95;3.15;;;;;;;;;;5053958;28;20202;-39
2023/07/15 17:59:52;;;;;;;4.40;3.25;;;;;;;;;;5055143;28;20231;-39
2023/07/15 18:02:19;;;;;;;3.95;3.25;;;;;;;;;;5055754;28;20312;-37
2023/07/15 18:04:50;;;;;;;7.28;3.42;;;;;;;;;;5052197;28;20367;-33
2023/07/15 18:07:19;;;;;;;6.43;3.22;;;;;;;;;;5053086;28;20309;-39
2023/07/15 18:09:47;;;;;;;6.88;3.72;;;;;;;;;;5052448;28;20233;-39
2023/07/15 18:12:17;;;;;;;5.78;3.28;;;;;;;;;;5052764;28;20213;-33
2023/07/15 18:14:44;;;;;;;7.18;3.22;;;;;;;;;;5053382;28;20229;-33
2023/07/15 18:17:11;;;;;;;4.78;2.92;;;;;;;;;;5052133;28;20341;-39
2023/07/15 18:19:39;;;;;;;9.13;3.75;;;;;;;;;;5052240;28;20239;-38
2023/07/15 18:22:06;;;;;;;4.18;3.28;;;;;;;;;;5053385;28;20205;-36
2023/07/15 18:24:33;;;;;;;4.85;3.13;;;;;;;;;;5053021;28;20366;-34
2023/07/15 18:27:02;;;;;;;7.05;3.70;;;;;;;;;;5051857;28;20222;-39
2023/07/15 18:29:29;;;;;;;3.25;2.97;;;;;;;;;;5052812;28;20229;-36
2023/07/15 18:31:56;;;;;;;4.35;3.42;;;;;;;;;;5053195;28;20206;-34
2023/07/15 18:34:23;;;;;;;7.13;3.45;;;;;;;;;;5053187;28;20347;-35
2023/07/15 18:36:50;;;;;;;5.00;3.72;;;;;;;;;;5052777;28;20198;-36
2023/07/15 18:39:17;;;;;;;6.55;3.38;;;;;;;;;;5054905;28;20225;-38
2023/07/15 18:41:45;;;;;;;4.63;3.58;;;;;;;;;;5053051;28;20202;-39
2023/07/15 18:44:14;;;;;;;5.38;2.80;;;;;;;;;;5052794;28;20241;-36
2023/07/15 18:46:43;;;;;;;5.28;3.25;;;;;;;;;;5052839;28;20229;-36
2023/07/15 18:49:10;;;;;;;6.63;3.20;;;;;;;;;;5052856;28;20316;-39
2023/07/15 18:51:37;;;;;;;3.65;3.15;;;;;;;;;;5052413;28;20216;-37
2023/07/15 18:54:04;;;;;;;5.68;3.15;;;;;;;;;;5052643;28;20434;-35
2023/07/15 18:56:31;;;;;;;5.00;3.47;;;;;;;;;;5051672;28;20660;-37
2023/07/15 18:58:58;;;;;;;5.20;3.30;;;;;;;;;;5052854;28;20232;-32
2023/07/15 19:01:27;;;;;;;5.63;3.55;;;;;;;;;;5052980;28;20451;-32
2023/07/15 19:03:54;;;;;;;18.75;4.20;;;;;;;;;;5051766;28;20216;-38
2023/07/15 19:06:21;;;;;;;7.43;3.80;;;;;;;;;;5051688;28;20206;-38
2023/07/15 19:08:48;;;;;;;5.70;4.20;;;;;;;;;;5052566;28;20232;-36
2023/07/15 19:11:15;;;;;;;7.15;3.88;;;;;;;;;;5051289;28;20201;-34
2023/07/15 19:13:42;;;;;;;4.38;3.33;;;;;;;;;;5052128;28;20206;-37
2023/07/15 19:16:09;;;;;;;4.88;3.53;;;;;;;;;;5052021;28;20194;-37
2023/07/15 19:18:38;;;;;;;4.03;3.13;;;;;;;;;;5051487;28;20312;-34
2023/07/15 19:21:05;;;;;;;4.60;4.10;;;;;;;;;;5052420;28;20191;-31
2023/07/15 19:23:32;;;;;;;5.65;3.75;;;;;;;;;;5052983;28;20217;-37
2023/07/15 19:25:59;;;;;;;5.50;3.78;;;;;;;;;;5051337;28;20205;-39
2023/07/15 19:28:26;;;;;;;3.75;3.38;;;;;;;;;;5051176;28;20233;-36
2023/07/15 19:30:54;;;;;;;4.18;3.50;;;;;;;;;;5051846;28;20240;-34
2023/07/15 19:33:21;;;;;;;5.35;3.38;;;;;;;;;;5051328;28;20217;-35
2023/07/15 19:35:49;;;;;;;6.25;5.05;;;;;;;;;;5051953;28;20202;-38
2023/07/15 19:38:16;;;;;;;8.43;6.90;;;;;;;;;;5051528;28;20218;-42
2023/07/15 19:40:43;;;;;;;8.75;6.03;;;;;;;;;;5051310;28;20212;-39
2023/07/15 19:43:13;;;;;;;8.00;6.15;;;;;;;;;;5051676;28;20216;-34
2023/07/15 19:45:41;;;;;;;6.05;5.45;;;;;;;;;;5051781;28;20198;-37
2023/07/15 19:48:08;;;;;;;7.88;4.03;;;;;;;;;;5050812;28;20230;-33
2023/07/15 19:50:35;;;;;;;7.45;3.65;;;;;;;;;;5051612;28;20656;-40
2023/07/15 19:53:03;;;;;;;3.97;3.67;;;;;;;;;;5052815;28;20205;-38
2023/07/15 19:55:30;;;;;;;5.10;3.90;;;;;;;;;;5051912;28;20264;-37
2023/07/15 19:57:58;;;;;;;5.03;3.70;;;;;;;;;;5052283;28;20222;-32
2023/07/15 20:00:25;;;;;;;6.97;4.00;;;;;;;;;;5051397;28;20216;-38
2023/07/15 20:02:52;;;;;;;6.85;3.78;;;;;;;;;;5051522;28;20220;-34
2023/07/15 20:05:19;;;;;;;7.15;3.30;;;;;;;;;;5050383;28;20198;-37
2023/07/15 20:07:46;;;;;;;6.38;3.55;;;;;;;;;;5050417;28;20517;-34
2023/07/15 20:10:14;;;;;;;7.07;3.70;;;;;;;;;;5050015;28;20210;-35
2023/07/15 20:12:42;;;;;;;6.78;3.72;;;;;;;;;;5050486;28;20214;-38
2023/07/15 20:15:09;;;;;;;4.60;3.35;;;;;;;;;;5050258;28;20212;-39
2023/07/15 20:17:36;;;;;;;6.05;3.45;;;;;;;;;;5049836;28;20212;-39
2023/07/15 20:26:04;;;;;;;6.00;3.83;;;;;;;;;;5071707;28;20205;-31
2023/07/15 20:28:42;;;;;;;6.53;3.97;;;;;;;;;;5073243;28;20229;-33
2023/07/15 20:31:17;;;;;;;4.32;3.45;;;;;;;;;;5073399;28;20262;-30
2023/07/15 20:34:03;;;;;;;6.13;4.13;;;;;;;;;;5073462;28;20213;-34
2023/07/15 20:36:41;;;;;;;4.97;4.20;;;;;;;;;;5072940;28;20231;-35
2023/07/15 20:39:22;;;;;;;6.63;4.18;;;;;;;;;;5072714;28;20224;-33
2023/07/15 20:42:00;;;;;;;7.32;4.20;;;;;;;;;;5072704;28;20713;-30
2023/07/15 20:44:42;;;;;;;7.03;4.47;;;;;;;;;;5073220;28;20204;-32
2023/07/15 20:47:21;;;;;;;6.72;4.00;;;;;;;;;;5073366;28;20224;-32
2023/07/15 20:50:09;;;;;;;8.00;5.00;;;;;;;;;;5072478;28;20252;-34
2023/07/15 20:52:45;;;;;;;9.65;4.60;;;;;;;;;;5074446;28;20212;-33
2023/07/15 20:55:29;;;;;;;5.28;3.55;;;;;;;;;;5073554;28;20258;-32
2023/07/15 20:58:04;;;;;;;7.00;4.80;;;;;;;;;;5055916;28;20224;-31
2023/07/15 21:00:45;;;;;;;5.35;4.07;;;;;;;;;;5073999;28;20208;-33
2023/07/15 21:03:41;;;;;;;7.38;4.45;;;;;;;;;;5073784;28;20231;-29
2023/07/15 21:09:19;;;;;;;5.35;4.22;;;;;;;;;;5073232;28;20254;-32
2023/07/15 21:12:03;;;;;;;6.78;4.15;;;;;;;;;;5071783;28;20664;-31
2023/07/15 21:14:35;;;;;;;5.75;4.13;;;;;;;;;;5072842;28;20213;-30
2023/07/15 21:17:25;;;;;;;6.05;3.97;;;;;;;;;;5072969;28;20217;-33
2023/07/15 21:20:00;;;;;;;6.38;4.07;;;;;;;;;;5073326;28;20220;-33
2023/07/15 21:22:50;;;;;;;8.73;4.60;;;;;;;;;;5073029;28;20399;-32
2023/07/15 21:28:33;;;;;;;8.90;4.55;;;;;;;;;;5073011;28;20277;-34
2023/07/15 21:34:15;;;;;;;7.32;4.68;;;;;;;;;;5070638;28;20205;-33
2023/07/15 21:36:46;;;;;;;6.57;5.18;;;;;;;;;;5073391;28;20235;-33
2023/07/15 21:39:28;;;;;;;11.45;5.45;;;;;;;;;;5073224;28;20656;-33
2023/07/15 21:42:02;;;;;;;9.48;4.85;;;;;;;;;;5074083;28;20213;-34
2023/07/15 21:44:43;;;;;;;7.55;4.57;;;;;;;;;;5074000;28;20565;-33
2023/07/15 21:50:08;;;;;;;6.55;3.90;;;;;;;;;;5064049;22;20241;-31
2023/07/15 21:53:00;;;;;;;6.28;3.55;;;;;;;;;;5057653;28;20209;-32
2023/07/15 21:55:52;;;;;;;5.72;3.47;;;;;;;;;;5060495;28;20321;-30
2023/07/15 21:58:36;;;;;;;4.80;2.75;;;;;;;;;;5057461;28;20316;-30
2023/07/15 22:10:20;;;;;;;3.90;2.50;;;;;;;;;;5073197;22;20768;-29
2023/07/15 22:12:59;;;;;;;4.22;2.65;;;;;;;;;;5057022;28;20206;-32
2023/07/15 22:15:42;;;;;;;4.00;2.35;;;;;;;;;;5057894;28;20678;-30
2023/07/15 22:21:06;;;;;;;3.00;2.42;;;;;;;;;;5052383;28;20209;-33
2023/07/15 22:24:15;;;;;;;2.85;2.60;;;;;;;;;;5055728;28;20214;-32
2023/07/15 22:27:09;;;;;;;2.40;2.20;;;;;;;;;;5055840;28;20220;-30
2023/07/15 22:30:13;;;;;;;2.13;2.03;;;;;;;;;;5055671;28;20283;-31
2023/07/15 22:33:00;;;;;;;2.42;1.98;;;;;;;;;;5055452;28;20279;-32
2023/07/15 22:35:50;;;;;;;5.55;1.90;;;;;;;;;;5055983;28;20240;-32
2023/07/15 22:38:31;;;;;;;2.85;2.13;;;;;;;;;;5055818;28;20225;-31
2023/07/15 22:41:12;;;;;;;2.90;1.90;;;;;;;;;;5054725;28;20205;-32
2023/07/15 22:46:43;;;;;;;3.20;2.10;;;;;;;;;;5055082;28;20210;-32
2023/07/15 22:49:23;;;;;;;2.60;2.00;;;;;;;;;;5054799;28;20276;-34
2023/07/15 22:52:04;;;;;;;3.25;1.88;;;;;;;;;;5054756;28;20202;-30
2023/07/15 22:54:46;;;;;;;2.10;1.88;;;;;;;;;;5055374;28;20220;-33
2023/07/15 22:57:26;;;;;;;3.03;1.98;;;;;;;;;;5055279;28;20359;-33
2023/07/15 23:00:34;;;;;;;2.15;1.92;;;;;;;;;;5054826;28;20589;-32
2023/07/15 23:03:21;;;;;;;2.83;1.85;;;;;;;;;;5054031;28;20209;-29
2023/07/15 23:05:55;;;;;;;3.75;2.13;;;;;;;;;;5054420;28;20588;-34
2023/07/15 23:08:47;;;;;;;2.13;2.03;;;;;;;;;;5054181;28;20236;-32
2023/07/15 23:11:31;;;;;;;4.80;2.20;;;;;;;;;;5054210;28;20217;-35
2023/07/15 23:14:13;;;;;;;4.95;2.38;;;;;;;;;;5055130;28;20206;-32
2023/07/15 23:16:46;;;;;;;3.75;2.40;;;;;;;;;;5054915;28;20209;-30
2023/07/15 23:19:36;;;;;;;2.97;2.03;;;;;;;;;;5037430;28;20217;-31
2023/07/15 23:22:18;;;;;;;2.40;2.10;;;;;;;;;;5054981;28;20226;-33
2023/07/15 23:24:49;;;;;;;3.90;2.63;;;;;;;;;;5055370;28;20570;-34